Time;durP1;ratioP1;P1;durP2;ratioP2;P2;SDS_P1;SDS_P2;PMS_P1;PMS_P2;Temp;Humidity;BMP_temperature;BMP_pressure;BME280_temperature;BME280_humidity;BME280_pressure;Samples;Min_cycle;Max_cycle;Signal;HPM_P1;HPM_P2
2022/01/27 00:05:51;;;;;;;;;57.25;45.50;;;;;7.04;60.68;102783.00;4916392;28;45398;-89
2022/01/27 00:08:22;;;;;;;;;54.75;41.75;;;;;7.01;61.01;102787.47;4912116;28;46033;-89
2022/01/27 00:11:02;;;;;;;;;56.00;44.00;;;;;7.07;61.12;102789.19;4913196;28;45634;-89
2022/01/27 00:13:42;;;;;;;;;54.50;40.25;;;;;6.73;61.07;102725.91;4912893;28;45526;-88
2022/01/27 00:16:18;;;;;;;;;46.25;41.00;;;;;6.98;61.02;102788.38;4912410;28;45462;-89
2022/01/27 00:18:46;;;;;;;;;50.50;40.25;;;;;6.66;61.30;102732.16;4913553;28;45484;-89
2022/01/27 00:21:12;;;;;;;;;57.75;45.50;;;;;6.63;61.32;102716.31;4953896;28;45702;-89
2022/01/27 00:23:40;;;;;;;;;44.00;38.25;;;;;6.97;61.02;102776.00;4970646;28;45497;-89
2022/01/27 00:26:06;;;;;;;;;45.75;39.00;;;;;6.76;61.48;102750.59;4990900;28;46174;-91
2022/01/27 00:28:31;;;;;;;;;55.50;41.00;;;;;6.68;61.12;102738.31;5023345;28;45341;-89
2022/01/27 00:30:57;;;;;;;;;51.25;36.75;;;;;6.83;60.99;102760.25;5024251;28;45408;-89
2022/01/27 00:33:22;;;;;;;;;48.25;38.25;;;;;6.85;61.25;102748.75;5026252;28;46204;-88
2022/01/27 00:35:48;;;;;;;;;56.75;42.25;;;;;6.81;61.30;102732.03;5020970;28;46449;-89
2022/01/27 00:38:15;;;;;;;;;47.00;40.00;;;;;6.87;60.51;102757.56;5008071;28;45420;-89
2022/01/27 00:40:40;;;;;;;;;47.50;39.75;;;;;6.79;61.03;102726.75;5010996;28;45621;-89
2022/01/27 00:43:06;;;;;;;;;51.25;41.25;;;;;7.00;61.10;102775.13;5028233;28;45363;-89
2022/01/27 00:45:32;;;;;;;;;52.75;39.00;;;;;6.83;61.07;102741.72;5022911;28;45453;-89
2022/01/27 00:48:02;;;;;;;;;43.50;35.25;;;;;6.77;60.95;102723.25;5023183;28;45532;-89
2022/01/27 00:50:28;;;;;;;;;49.00;40.75;;;;;6.98;61.13;102734.56;5022253;28;45397;-89
2022/01/27 00:52:56;;;;;;;;;55.25;38.75;;;;;6.80;60.59;102715.25;5018028;28;46274;-89
2022/01/27 00:55:24;;;;;;;;;53.25;42.75;;;;;6.86;61.04;102705.53;5002541;28;45645;-90
2022/01/27 01:00:30;;;;;;;;;49.25;38.25;;;;;6.77;60.86;102704.72;5019094;28;45470;-90
2022/01/27 01:03:06;;;;;;;;;56.00;44.25;;;;;6.76;61.02;102688.88;5020094;28;47144;-89
2022/01/27 01:08:30;;;;;;;;;57.50;42.75;;;;;7.00;61.13;102744.22;5022220;28;45467;-89
2022/01/27 01:16:11;;;;;;;;;53.25;41.75;;;;;6.89;60.99;102716.97;5022876;28;46110;-89
2022/01/27 01:34:28;;;;;;;;;49.75;40.25;;;;;7.03;60.83;102723.00;4967733;28;47416;-89
2022/01/27 01:36:57;;;;;;;;;45.00;37.50;;;;;7.03;60.88;102704.47;4964508;28;45460;-89
2022/01/27 01:39:29;;;;;;;;;50.50;39.75;;;;;6.98;61.10;102685.13;4949446;28;45528;-89
2022/01/27 01:41:56;;;;;;;;;50.25;36.75;;;;;7.10;60.75;102699.13;4956749;28;45518;-89
2022/01/27 01:44:22;;;;;;;;;54.50;39.50;;;;;7.11;61.22;102691.16;4965338;28;45527;-89
2022/01/27 01:46:47;;;;;;;;;53.50;42.25;;;;;7.07;60.85;102708.00;4967666;28;45616;-89
2022/01/27 01:49:13;;;;;;;;;54.25;41.75;;;;;6.95;61.45;102692.19;4959022;28;45492;-89
2022/01/27 01:51:40;;;;;;;;;57.00;44.75;;;;;6.77;61.00;102650.91;4976928;28;45530;-89
2022/01/27 01:54:07;;;;;;;;;47.00;37.75;;;;;6.95;61.25;102681.59;4977441;28;46194;-89
2022/01/27 01:56:35;;;;;;;;;58.50;46.25;;;;;6.76;61.43;102657.97;4986879;28;45501;-90
2022/01/27 01:59:01;;;;;;;;;59.25;44.75;;;;;6.98;61.26;102714.25;5034240;28;45416;-90
2022/01/27 02:01:26;;;;;;;;;59.50;45.50;;;;;6.88;61.71;102680.81;5033495;28;45478;-90
2022/01/27 02:03:52;;;;;;;;;58.25;47.50;;;;;7.04;61.94;102686.81;5035649;28;45991;-89
2022/01/27 02:06:26;;;;;;;;;55.00;43.75;;;;;6.89;61.58;102684.31;5032355;28;45563;-89
2022/01/27 02:19:53;;;;;;;;;55.00;42.75;;;;;6.92;62.10;102653.38;5033422;28;45638;-89
2022/01/27 02:22:20;;;;;;;;;58.25;43.75;;;;;6.74;62.60;102638.56;5032619;28;45479;-89
2022/01/27 02:24:47;;;;;;;;;57.50;43.50;;;;;6.88;62.67;102658.72;5017548;28;46892;-89
2022/01/27 02:27:14;;;;;;;;;57.75;44.50;;;;;6.83;62.32;102675.56;5034944;28;45525;-89
2022/01/27 02:29:40;;;;;;;;;63.25;48.50;;;;;6.93;62.21;102667.53;5035237;28;45464;-89
2022/01/27 02:32:07;;;;;;;;;53.25;42.00;;;;;6.93;62.56;102686.94;5013188;28;45469;-89
2022/01/27 02:34:32;;;;;;;;;56.00;43.75;;;;;6.90;62.29;102665.75;5038316;28;46405;-89
2022/01/27 02:36:57;;;;;;;;;54.50;44.50;;;;;6.73;61.87;102636.81;5017712;28;45575;-89
2022/01/27 02:39:23;;;;;;;;;58.25;47.25;;;;;6.90;62.36;102655.16;5043482;28;45687;-89
2022/01/27 02:41:48;;;;;;;;;54.50;44.75;;;;;6.91;62.18;102656.06;5038554;28;45421;-89
2022/01/27 02:44:24;;;;;;;;;57.25;45.00;;;;;6.83;62.40;102654.38;5032877;28;45458;-89
2022/01/27 02:46:51;;;;;;;;;56.25;42.75;;;;;6.74;62.90;102633.28;5015442;28;45591;-89
2022/01/27 02:49:17;;;;;;;;;53.25;43.00;;;;;6.64;62.55;102607.81;5024693;28;45329;-90
2022/01/27 02:51:42;;;;;;;;;53.25;41.00;;;;;6.60;62.68;102614.00;5035741;28;45582;-90
2022/01/27 02:54:08;;;;;;;;;58.00;43.25;;;;;6.70;62.46;102634.19;5033839;28;46223;-90
2022/01/27 02:56:33;;;;;;;;;53.75;41.75;;;;;6.61;62.86;102613.09;5015875;28;45407;-90
2022/01/27 02:58:59;;;;;;;;;49.25;39.50;;;;;6.75;62.46;102642.97;5030004;28;45301;-90
2022/01/27 03:01:24;;;;;;;;;51.00;39.75;;;;;6.68;62.26;102621.88;5034279;28;46657;-90
2022/01/27 03:03:49;;;;;;;;;50.75;39.50;;;;;6.74;62.98;102646.53;5035110;28;46526;-88
2022/01/27 03:06:15;;;;;;;;;52.75;41.00;;;;;6.84;62.71;102642.00;5033482;28;45486;-88
2022/01/27 03:08:40;;;;;;;;;55.25;42.25;;;;;6.57;62.87;102612.28;5032655;28;45435;-88
2022/01/27 03:11:17;;;;;;;;;55.50;43.00;;;;;6.67;62.77;102628.94;5032873;28;45476;-89
2022/01/27 03:13:42;;;;;;;;;55.00;40.50;;;;;6.77;62.79;102646.47;5028511;28;45916;-88
2022/01/27 03:16:08;;;;;;;;;48.50;41.00;;;;;6.86;63.14;102639.38;5035186;28;45842;-88
2022/01/27 03:18:34;;;;;;;;;56.00;44.00;;;;;6.81;62.65;102661.44;5034844;28;45380;-88
2022/01/27 03:21:00;;;;;;;;;56.50;42.50;;;;;6.59;62.45;102585.78;5039655;28;45539;-88
2022/01/27 03:23:25;;;;;;;;;55.75;41.00;;;;;6.82;62.92;102626.13;5032088;28;45638;-87
2022/01/27 03:25:50;;;;;;;;;52.75;40.50;;;;;6.74;62.97;102619.19;5027702;28;45911;-89
2022/01/27 03:28:18;;;;;;;;;58.25;44.00;;;;;6.68;62.83;102620.09;5011611;28;45590;-88
2022/01/27 03:30:44;;;;;;;;;58.25;42.50;;;;;6.64;63.03;102607.81;5014387;28;45403;-88
2022/01/27 03:33:09;;;;;;;;;54.25;41.50;;;;;6.69;62.75;102619.22;5030002;28;47313;-88
2022/01/27 03:35:34;;;;;;;;;44.75;38.50;;;;;6.72;62.79;102631.53;5032171;28;45455;-88
2022/01/27 03:38:00;;;;;;;;;56.75;42.00;;;;;6.57;62.69;102601.69;5034013;28;45479;-88
2022/01/27 03:40:25;;;;;;;;;54.25;42.75;;;;;6.65;63.02;102606.91;5016401;28;45405;-88
2022/01/27 03:43:02;;;;;;;;;52.00;40.50;;;;;6.64;63.27;102620.13;5016948;28;47152;-88
2022/01/27 03:45:28;;;;;;;;;49.75;39.50;;;;;6.55;63.19;102614.06;5032492;28;45475;-88
2022/01/27 03:47:54;;;;;;;;;54.75;38.00;;;;;6.54;63.06;102625.53;5032826;28;45509;-88
2022/01/27 03:50:19;;;;;;;;;52.50;41.25;;;;;6.49;62.66;102594.69;5014949;28;45599;-88
2022/01/27 03:52:45;;;;;;;;;43.00;37.00;;;;;6.74;63.08;102622.69;5031124;28;47193;-88
2022/01/27 03:55:11;;;;;;;;;48.00;39.25;;;;;6.77;63.09;102659.72;5031339;28;45564;-89
2022/01/27 03:57:36;;;;;;;;;49.50;38.75;;;;;6.65;63.63;102628.06;5033587;28;45499;-88
2022/01/27 04:00:02;;;;;;;;;46.25;40.25;;;;;6.74;63.14;102624.47;5033678;28;45373;-88
2022/01/27 04:02:27;;;;;;;;;47.75;39.50;;;;;6.54;63.51;102604.38;5014272;28;47422;-89
2022/01/27 04:04:52;;;;;;;;;56.50;42.75;;;;;6.68;63.61;102613.94;5013527;28;45579;-88
2022/01/27 04:07:18;;;;;;;;;45.50;34.50;;;;;6.50;63.36;102599.13;5013481;28;45415;-88
2022/01/27 04:09:43;;;;;;;;;51.50;39.25;;;;;6.69;63.14;102621.88;5031267;28;45489;-88
2022/01/27 04:12:09;;;;;;;;;50.00;40.50;;;;;6.61;63.10;102616.66;5015468;28;47396;-88
2022/01/27 04:14:34;;;;;;;;;51.75;41.25;;;;;6.51;63.04;102600.88;5032720;28;45595;-88
2022/01/27 04:17:00;;;;;;;;;47.00;37.75;;;;;6.74;63.39;102651.81;5029652;28;45695;-88
2022/01/27 04:19:25;;;;;;;;;49.50;38.75;;;;;6.52;63.22;102587.63;5015752;28;45310;-88
2022/01/27 04:21:50;;;;;;;;;51.00;40.50;;;;;6.44;63.27;102586.81;5041374;28;45391;-88
2022/01/27 04:24:17;;;;;;;;;48.75;40.00;;;;;6.57;63.08;102611.41;5035897;28;45471;-88
2022/01/27 04:26:47;;;;;;;;;53.50;41.50;;;;;6.68;62.72;102608.63;5020776;28;45531;-88
2022/01/27 04:29:14;;;;;;;;;48.75;38.75;;;;;6.68;63.25;102630.69;5033616;28;45315;-88
2022/01/27 04:31:42;;;;;;;;;46.00;38.00;;;;;6.75;63.23;102640.31;5033686;28;45515;-88
2022/01/27 04:34:08;;;;;;;;;47.50;39.50;;;;;6.73;63.01;102639.44;5029006;28;45423;-88
2022/01/27 04:36:35;;;;;;;;;43.50;36.75;;;;;6.51;62.84;102585.00;5036903;28;45474;-88
2022/01/27 04:39:26;;;;;;;;;49.00;38.75;;;;;6.77;63.26;102624.44;5019618;28;45483;-88
2022/01/27 04:41:59;;;;;;;;;50.00;38.75;;;;;6.75;63.17;102636.81;5036238;28;46190;-89
2022/01/27 04:44:37;;;;;;;;;51.50;38.50;;;;;6.60;62.80;102629.88;5036773;28;45609;-88
2022/01/27 04:47:09;;;;;;;;;37.00;30.00;;;;;6.55;63.00;102592.00;5037156;28;45392;-89
2022/01/27 04:49:35;;;;;;;;;48.50;39.25;;;;;6.61;62.96;102603.44;5019435;28;45380;-88
2022/01/27 04:52:00;;;;;;;;;51.75;40.50;;;;;6.63;62.76;102628.97;5038048;28;46426;-88
2022/01/27 04:54:48;;;;;;;;;43.25;35.25;;;;;6.58;62.95;102618.44;5036699;28;45616;-88
2022/01/27 04:57:14;;;;;;;;;54.25;43.50;;;;;6.73;63.00;102639.44;5035045;28;45439;-88
2022/01/27 04:59:42;;;;;;;;;48.25;37.50;;;;;6.65;63.14;102612.19;5011934;28;45547;-88
2022/01/27 05:02:16;;;;;;;;;43.50;36.75;;;;;6.56;63.26;102607.84;5037755;28;45626;-88
2022/01/27 05:04:44;;;;;;;;;39.75;35.25;;;;;6.61;63.45;102628.97;5022167;28;45606;-89
2022/01/27 05:07:09;;;;;;;;;54.50;39.00;;;;;6.58;63.55;102603.44;5038085;28;45290;-88
2022/01/27 05:09:36;;;;;;;;;38.50;35.00;;;;;6.61;62.92;102615.75;5037149;28;45463;-88
2022/01/27 05:12:15;;;;;;;;;45.75;35.75;;;;;6.61;63.58;102598.13;5037195;28;46008;-88
2022/01/27 05:14:41;;;;;;;;;52.50;40.25;;;;;6.61;63.43;102605.16;5019455;28;45746;-88
2022/01/27 05:17:06;;;;;;;;;44.25;37.50;;;;;6.71;62.88;102622.75;5037543;28;45411;-88
2022/01/27 05:19:31;;;;;;;;;36.25;27.00;;;;;6.59;62.79;102599.91;5037393;28;45616;-88
2022/01/27 05:21:57;;;;;;;;;44.50;36.00;;;;;6.46;63.46;102570.94;5037631;28;45455;-88
2022/01/27 05:24:22;;;;;;;;;46.00;37.75;;;;;6.44;63.15;102589.44;5018724;28;45748;-88
2022/01/27 05:26:48;;;;;;;;;47.50;36.50;;;;;6.69;63.13;102613.06;5019380;28;45531;-88
2022/01/27 05:29:13;;;;;;;;;41.75;34.75;;;;;6.34;62.92;102569.28;5037148;28;45613;-88
2022/01/27 05:31:39;;;;;;;;;41.00;35.25;;;;;6.58;63.05;102613.16;5037156;28;46178;-88
2022/01/27 05:34:05;;;;;;;;;52.25;37.25;;;;;6.65;63.39;102621.91;5037594;28;45349;-87
2022/01/27 05:36:31;;;;;;;;;41.75;37.00;;;;;6.41;63.15;102568.31;5020902;28;45510;-88
2022/01/27 05:38:57;;;;;;;;;47.50;39.00;;;;;6.52;63.31;102590.28;5037109;28;45290;-88
2022/01/27 05:41:23;;;;;;;;;37.00;31.25;;;;;6.68;62.94;102638.63;5020194;28;47998;-88
2022/01/27 05:43:48;;;;;;;;;48.00;36.25;;;;;6.65;62.87;102600.75;5038367;28;45398;-89
2022/01/27 05:46:14;;;;;;;;;52.00;38.75;;;;;6.52;63.06;102595.56;5037697;28;45487;-88
2022/01/27 05:48:39;;;;;;;;;37.75;34.00;;;;;6.59;63.06;102614.88;5037552;28;45545;-88
2022/01/27 05:51:05;;;;;;;;;42.00;36.25;;;;;6.40;63.28;102580.69;5036938;28;45447;-88
2022/01/27 05:53:32;;;;;;;;;46.25;38.75;;;;;6.47;63.11;102593.84;5036349;28;45995;-89
2022/01/27 05:55:57;;;;;;;;;44.00;36.50;;;;;6.42;63.40;102562.13;5037154;28;45694;-88
2022/01/27 05:58:23;;;;;;;;;46.75;37.00;;;;;6.52;63.33;102566.47;5036159;28;45356;-88
2022/01/27 06:00:48;;;;;;;;;49.75;36.75;;;;;6.71;63.13;102616.53;5018014;28;47895;-88
2022/01/27 06:03:14;;;;;;;;;43.50;37.50;;;;;6.47;63.10;102564.75;5035334;28;45406;-88
2022/01/27 06:05:40;;;;;;;;;42.00;34.75;;;;;6.46;62.89;102573.56;5017320;28;45479;-88
2022/01/27 06:08:05;;;;;;;;;39.50;35.50;;;;;6.69;62.92;102637.75;5035168;28;45373;-88
2022/01/27 06:10:31;;;;;;;;;44.00;36.50;;;;;6.54;62.86;102599.09;5035325;28;46409;-87
2022/01/27 06:12:56;;;;;;;;;37.00;35.75;;;;;6.50;63.00;102600.00;5036051;28;45439;-87
2022/01/27 06:15:23;;;;;;;;;46.00;39.25;;;;;6.67;62.84;102631.59;5017372;28;45577;-88
2022/01/27 06:17:49;;;;;;;;;37.75;30.50;;;;;6.52;62.83;102579.69;5034963;28;45377;-88
2022/01/27 06:20:16;;;;;;;;;42.00;36.00;;;;;6.46;62.89;102592.97;5035318;28;45822;-88
2022/01/27 06:22:42;;;;;;;;;43.75;38.50;;;;;6.36;62.79;102564.84;5034897;28;45494;-88
2022/01/27 06:25:08;;;;;;;;;44.25;36.75;;;;;6.64;62.69;102607.81;5017916;28;45389;-88
2022/01/27 06:27:33;;;;;;;;;45.00;35.25;;;;;6.44;63.05;102599.16;5035349;28;45391;-88
2022/01/27 06:29:59;;;;;;;;;45.00;37.00;;;;;6.66;62.91;102644.81;5035027;28;46178;-88
2022/01/27 06:32:24;;;;;;;;;40.00;34.75;;;;;6.49;62.95;102592.06;5035096;28;45280;-89
2022/01/27 06:34:50;;;;;;;;;39.50;32.25;;;;;6.50;63.07;102609.72;5034004;28;45511;-88
2022/01/27 06:37:15;;;;;;;;;51.00;37.75;;;;;6.61;62.96;102611.38;5035491;28;45466;-88
2022/01/27 06:39:40;;;;;;;;;41.25;38.00;;;;;6.70;63.21;102625.38;5034948;28;46080;-88
2022/01/27 06:42:07;;;;;;;;;44.50;38.00;;;;;6.59;62.89;102615.78;5034803;28;45509;-88
2022/01/27 06:44:33;;;;;;;;;46.75;37.25;;;;;6.73;63.26;102641.22;5035153;28;45493;-89
2022/01/27 06:47:00;;;;;;;;;47.50;36.25;;;;;6.73;63.08;102634.16;5035170;28;45395;-88
2022/01/27 06:49:26;;;;;;;;;36.00;34.00;;;;;6.70;63.06;102628.03;5034983;28;46648;-88
2022/01/27 06:51:51;;;;;;;;;47.75;37.25;;;;;6.57;63.11;102616.69;5035486;28;45651;-88
2022/01/27 06:54:17;;;;;;;;;37.75;33.25;;;;;6.73;63.47;102642.09;5035359;28;45501;-88
2022/01/27 06:56:44;;;;;;;;;45.00;36.00;;;;;6.68;63.70;102643.91;5035655;28;45484;-88
2022/01/27 06:59:10;;;;;;;;;44.50;36.00;;;;;6.50;63.69;102610.56;5034944;28;45535;-88
2022/01/27 07:01:36;;;;;;;;;37.00;33.50;;;;;6.48;63.39;102617.66;5034370;28;45440;-88
2022/01/27 07:04:01;;;;;;;;;40.00;36.75;;;;;6.35;63.27;102611.59;5035373;28;45506;-88
2022/01/27 07:06:27;;;;;;;;;46.25;35.25;;;;;6.41;63.45;102613.28;5034447;28;45267;-88
2022/01/27 07:08:53;;;;;;;;;38.25;32.75;;;;;6.67;63.20;102646.59;5026134;28;46611;-87
2022/01/27 07:11:18;;;;;;;;;42.25;36.00;;;;;6.41;62.80;102605.34;5016111;28;45291;-88
2022/01/27 07:13:44;;;;;;;;;40.00;33.75;;;;;6.35;62.97;102608.03;5015253;28;46140;-87
2022/01/27 07:16:10;;;;;;;;;39.75;34.50;;;;;6.40;63.44;102622.13;5018877;28;45484;-88
2022/01/27 07:18:36;;;;;;;;;44.25;36.25;;;;;6.46;63.21;102616.78;5028738;28;45435;-88
2022/01/27 07:21:03;;;;;;;;;41.25;35.00;;;;;6.63;63.33;102643.09;5013588;28;45760;-88
2022/01/27 07:23:28;;;;;;;;;36.50;34.25;;;;;6.54;63.37;102636.13;5034658;28;45412;-88
2022/01/27 07:25:54;;;;;;;;;33.75;29.25;;;;;6.62;63.30;102657.22;5034114;28;45917;-88
2022/01/27 07:28:19;;;;;;;;;38.00;34.50;;;;;6.38;63.36;102606.25;5034748;28;45530;-87
2022/01/27 07:30:44;;;;;;;;;43.50;36.50;;;;;6.40;63.57;102599.19;5034578;28;45376;-88
2022/01/27 07:33:10;;;;;;;;;46.00;37.25;;;;;6.46;63.53;102637.94;5033687;28;45475;-88
2022/01/27 07:35:35;;;;;;;;;46.50;38.00;;;;;6.29;63.70;102610.75;5040009;28;45657;-88
2022/01/27 07:38:01;;;;;;;;;40.00;36.75;;;;;6.46;63.33;102626.47;5034588;28;46426;-87
2022/01/27 07:40:28;;;;;;;;;33.00;29.75;;;;;6.45;63.90;102617.69;5034788;28;47697;-89
2022/01/27 07:43:03;;;;;;;;;41.00;33.75;;;;;6.46;63.51;102613.25;5035739;28;45898;-88
2022/01/27 07:45:28;;;;;;;;;50.25;42.50;;;;;6.27;63.24;102583.44;5033406;28;45354;-88
2022/01/27 07:47:54;;;;;;;;;47.25;36.25;;;;;6.48;63.70;102636.16;5033254;28;45533;-88
2022/01/27 07:50:21;;;;;;;;;48.50;36.00;;;;;6.48;63.40;102603.53;5036154;28;45322;-88
2022/01/27 07:52:47;;;;;;;;;43.50;36.00;;;;;6.47;63.12;102604.41;5033250;28;45412;-88
2022/01/27 07:55:12;;;;;;;;;50.25;41.00;;;;;6.60;63.12;102620.19;5032712;28;45496;-88
2022/01/27 07:57:38;;;;;;;;;45.75;38.00;;;;;6.40;63.27;102606.25;5033611;28;45510;-88
2022/01/27 08:00:09;;;;;;;;;51.75;38.75;;;;;6.49;63.10;102600.00;5031001;28;45515;-88
2022/01/27 08:02:35;;;;;;;;;43.75;36.25;;;;;6.44;63.19;102622.97;5032813;28;45359;-88
2022/01/27 08:05:00;;;;;;;;;46.75;37.50;;;;;6.40;63.44;102601.84;5030025;28;46643;-88
2022/01/27 08:07:25;;;;;;;;;46.75;38.50;;;;;6.56;63.10;102652.84;5033543;28;46293;-88
2022/01/27 08:09:51;;;;;;;;;42.50;33.75;;;;;6.40;63.05;102616.84;5035322;28;46239;-89
2022/01/27 08:12:16;;;;;;;;;38.75;34.50;;;;;6.46;63.29;102627.34;5010876;28;45610;-89
2022/01/27 08:14:42;;;;;;;;;51.25;37.75;;;;;6.54;63.01;102617.59;5007402;28;45470;-89
2022/01/27 08:17:07;;;;;;;;;50.50;39.00;;;;;6.55;63.34;102643.16;5006213;28;46673;-89
2022/01/27 08:19:33;;;;;;;;;38.75;37.00;;;;;6.57;63.17;102617.56;5005539;28;45613;-88
2022/01/27 08:21:58;;;;;;;;;51.25;39.25;;;;;6.53;62.84;102621.13;5025389;28;45515;-88
2022/01/27 08:24:24;;;;;;;;;43.50;37.25;;;;;6.67;63.20;102638.66;5007556;28;45309;-88
2022/01/27 08:26:52;;;;;;;;;51.00;38.25;;;;;6.46;63.05;102615.91;5005934;28;47365;-88
2022/01/27 08:29:22;;;;;;;;;47.75;36.50;;;;;6.66;63.38;102656.28;5011849;28;45659;-88
2022/01/27 08:34:31;;;;;;;;;43.00;37.25;;;;;6.57;63.34;102638.72;5014511;28;45310;-88
2022/01/27 08:37:06;;;;;;;;;49.75;37.50;;;;;6.65;63.08;102638.66;5011894;28;45549;-88
2022/01/27 08:39:31;;;;;;;;;54.25;40.75;;;;;6.55;63.09;102640.50;5007892;28;46017;-90
2022/01/27 08:41:57;;;;;;;;;48.50;37.00;;;;;6.68;62.92;102637.75;5007685;28;45653;-90
2022/01/27 08:44:23;;;;;;;;;53.25;38.00;;;;;6.58;62.75;102621.09;5010398;28;45564;-91
2022/01/27 08:46:49;;;;;;;;;44.00;35.00;;;;;6.77;62.79;102686.19;5011954;28;45478;-90
2022/01/27 08:49:16;;;;;;;;;44.75;37.25;;;;;6.52;62.89;102635.25;5012061;28;45345;-90
2022/01/27 08:51:42;;;;;;;;;42.75;36.00;;;;;6.60;63.06;102646.63;5011864;28;45403;-90
2022/01/27 08:54:07;;;;;;;;;47.00;38.00;;;;;6.66;62.96;102632.47;5013523;28;47008;-90
2022/01/27 08:56:33;;;;;;;;;41.00;37.25;;;;;6.66;63.17;102648.34;5012092;28;45454;-89
2022/01/27 08:58:58;;;;;;;;;48.75;39.50;;;;;6.80;62.94;102653.50;5023396;28;45369;-90
2022/01/27 09:01:26;;;;;;;;;45.00;38.00;;;;;6.65;62.62;102606.03;5012151;28;45435;-90
2022/01/27 09:03:52;;;;;;;;;47.00;38.00;;;;;6.61;62.81;102619.31;5012925;28;45286;-89
2022/01/27 09:06:23;;;;;;;;;46.75;35.75;;;;;6.61;62.80;102615.75;5021843;28;46124;-90
2022/01/27 09:08:52;;;;;;;;;48.50;39.50;;;;;6.81;62.74;102618.22;5011548;28;45475;-89
2022/01/27 09:11:18;;;;;;;;;42.75;36.00;;;;;6.83;62.60;102627.91;5010196;28;45733;-89
2022/01/27 09:13:44;;;;;;;;;51.25;38.25;;;;;7.00;62.80;102667.44;5026565;28;45496;-90
2022/01/27 09:16:10;;;;;;;;;45.75;37.75;;;;;6.91;62.41;102614.59;5013277;28;47112;-90
2022/01/27 09:18:36;;;;;;;;;44.25;38.00;;;;;7.02;62.06;102647.13;5011917;28;45435;-90
2022/01/27 09:21:13;;;;;;;;;44.25;38.00;;;;;6.78;62.66;102597.06;5028254;28;45469;-90
2022/01/27 09:23:39;;;;;;;;;56.25;39.25;;;;;6.92;62.44;102632.22;5029105;28;45484;-87
2022/01/27 09:26:09;;;;;;;;;47.50;39.00;;;;;6.77;62.77;102580.31;5029861;28;45946;-90
2022/01/27 09:28:36;;;;;;;;;46.25;38.25;;;;;7.00;62.39;102635.69;5032094;28;45379;-87
2022/01/27 09:31:04;;;;;;;;;46.25;37.00;;;;;7.05;62.76;102632.97;5035509;28;45459;-88
2022/01/27 09:33:29;;;;;;;;;50.75;38.75;;;;;7.07;62.54;102649.72;5025235;28;45540;-88
2022/01/27 09:35:55;;;;;;;;;54.75;40.25;;;;;6.94;62.49;102609.25;5035641;28;45680;-89
2022/01/27 09:38:20;;;;;;;;;50.25;39.00;;;;;7.13;62.36;102633.75;5034298;28;45501;-89
2022/01/27 09:40:50;;;;;;;;;53.50;42.00;;;;;7.13;62.64;102654.94;5035554;28;47905;-90
2022/01/27 09:43:16;;;;;;;;;45.25;38.75;;;;;6.85;62.46;102590.81;5032984;28;46432;-90
2022/01/27 09:45:42;;;;;;;;;51.00;39.50;;;;;7.05;62.46;102617.09;5031114;28;48507;-91
2022/01/27 09:48:13;;;;;;;;;52.50;39.25;;;;;6.86;62.86;102575.84;5033265;28;45436;-90
2022/01/27 09:51:44;;;;;;;;;50.75;39.75;;;;;7.14;62.52;102619.59;5016611;28;45431;-90
2022/01/27 09:53:38;;;;;;;;;48.25;41.00;;;;;7.09;62.49;102604.69;5021013;28;45362;-90
2022/01/27 09:56:04;;;;;;;;;35.25;33.25;;;;;7.07;62.84;102594.13;5031700;28;45465;-90
2022/01/27 09:58:29;;;;;;;;;47.50;38.75;;;;;7.14;62.35;102630.19;5017044;28;45519;-90
2022/01/27 10:00:55;;;;;;;;;49.00;42.50;;;;;6.98;62.53;102581.00;5035265;28;45415;-89
2022/01/27 10:03:20;;;;;;;;;46.25;38.25;;;;;7.23;62.73;102627.47;5034072;28;45582;-90
2022/01/27 10:05:46;;;;;;;;;46.75;35.50;;;;;7.14;62.78;102618.75;5034023;28;45441;-90
2022/01/27 10:08:16;;;;;;;;;47.75;37.75;;;;;7.01;63.24;102576.53;5030389;28;45859;-89
2022/01/27 10:10:44;;;;;;;;;46.50;38.25;;;;;7.07;62.65;102565.00;5027022;28;46744;-89
2022/01/27 10:13:25;;;;;;;;;47.25;37.00;;;;;7.10;62.67;102590.56;5016969;28;45511;-90
2022/01/27 10:15:51;;;;;;;;;40.75;37.00;;;;;7.28;62.50;102605.34;5015977;28;48352;-89
2022/01/27 10:18:24;;;;;;;;;53.75;40.75;;;;;7.20;62.52;102603.66;5033331;28;45880;-89
2022/01/27 10:21:07;;;;;;;;;47.50;40.25;;;;;7.26;62.66;102613.28;5017413;28;45515;-89
2022/01/27 10:23:37;;;;;;;;;36.50;34.25;;;;;7.11;62.62;102595.81;5014521;28;46146;-90
2022/01/27 10:26:14;;;;;;;;;47.25;36.25;;;;;7.11;62.60;102595.81;5035323;28;45851;-90
2022/01/27 10:28:48;;;;;;;;;49.00;40.00;;;;;7.24;62.50;102615.97;5015397;28;45736;-90
2022/01/27 10:31:23;;;;;;;;;55.25;39.75;;;;;7.15;62.61;102608.13;5031366;28;45417;-90
2022/01/27 10:34:04;;;;;;;;;43.25;37.75;;;;;7.15;63.06;102602.84;5017523;28;45599;-89
2022/01/27 10:36:40;;;;;;;;;40.75;37.25;;;;;7.35;62.87;102622.91;5034465;28;46447;-90
2022/01/27 10:39:08;;;;;;;;;53.25;40.75;;;;;7.28;62.71;102629.19;5034374;28;45503;-89
2022/01/27 10:41:37;;;;;;;;;44.75;34.25;;;;;7.00;62.68;102568.63;5034154;28;45399;-89
2022/01/27 10:44:17;;;;;;;;;48.00;40.25;;;;;7.22;63.15;102601.00;5035565;28;45488;-89
2022/01/27 10:47:06;;;;;;;;;54.50;40.50;;;;;7.37;62.61;102610.53;5020681;28;45357;-90
2022/01/27 10:49:35;;;;;;;;;36.25;34.75;;;;;7.33;62.60;102583.19;5034868;28;45462;-89
2022/01/27 10:52:04;;;;;;;;;47.25;38.50;;;;;7.23;62.20;102565.66;5035444;28;45239;-90
2022/01/27 10:54:37;;;;;;;;;46.25;37.00;;;;;7.30;62.66;102585.00;5035543;28;45414;-90
2022/01/27 10:57:10;;;;;;;;;43.25;37.75;;;;;7.41;62.50;102610.47;5028584;28;45522;-89
2022/01/27 10:59:35;;;;;;;;;42.25;35.25;;;;;7.36;62.83;102604.38;5021597;28;45591;-90
2022/01/27 11:02:08;;;;;;;;;52.00;40.50;;;;;7.18;62.80;102557.78;5020169;28;45429;-90
2022/01/27 11:04:37;;;;;;;;;54.00;37.25;;;;;7.31;62.73;102592.94;5016454;28;45696;-89
2022/01/27 11:07:06;;;;;;;;;44.75;36.25;;;;;7.52;62.47;102610.31;5035806;28;45376;-89
2022/01/27 11:09:38;;;;;;;;;53.00;41.00;;;;;7.56;62.47;102641.19;5016525;28;45421;-90
2022/01/27 11:12:12;;;;;;;;;50.00;37.75;;;;;7.29;62.55;102568.25;5013065;28;45356;-89
2022/01/27 11:14:38;;;;;;;;;46.75;37.75;;;;;7.41;62.86;102606.97;5036798;28;45607;-90
2022/01/27 11:17:05;;;;;;;;;44.25;37.00;;;;;7.42;62.76;102598.97;5031623;28;45486;-89
2022/01/27 11:22:41;;;;;;;;;50.75;40.25;;;;;7.61;62.61;102606.69;5032589;28;46775;-89
2022/01/27 11:27:33;;;;;;;;;52.50;38.00;;;;;7.66;62.69;102600.41;5032196;28;45527;-87
2022/01/27 11:30:19;;;;;;;;;47.50;36.25;;;;;7.52;62.74;102567.06;5037438;28;45400;-87
2022/01/27 11:33:09;;;;;;;;;43.00;35.50;;;;;7.80;62.52;102596.69;5033573;28;45495;-88
2022/01/27 11:35:34;;;;;;;;;41.25;36.25;;;;;7.67;62.64;102567.72;5021263;28;45783;-87
2022/01/27 11:38:03;;;;;;;;;40.25;37.25;;;;;7.70;62.51;102585.34;5030290;28;46109;-88
2022/01/27 11:40:40;;;;;;;;;37.75;35.50;;;;;7.88;62.32;102578.91;5022148;28;45515;-88
2022/01/27 11:43:11;;;;;;;;;50.75;37.25;;;;;7.71;62.51;102565.88;5024105;28;45572;-87
2022/01/27 11:45:36;;;;;;;;;36.75;34.25;;;;;7.90;62.26;102570.00;5028084;28;45622;-88
2022/01/27 11:48:09;;;;;;;;;54.25;41.00;;;;;7.87;62.73;102567.41;5028831;28;45626;-87
2022/01/27 11:50:50;;;;;;;;;37.50;34.50;;;;;7.95;62.02;102564.63;5029220;28;45471;-88
2022/01/27 11:53:33;;;;;;;;;52.25;40.00;;;;;7.95;62.38;102564.63;5030854;28;45540;-90
2022/01/27 11:56:04;;;;;;;;;39.50;35.00;;;;;7.80;62.78;102546.34;5033293;28;45407;-89
2022/01/27 11:58:30;;;;;;;;;42.50;36.50;;;;;7.86;62.32;102532.97;5015747;28;45905;-90
2022/01/27 12:01:07;;;;;;;;;46.75;38.50;;;;;7.85;62.49;102563.03;5007646;28;45541;-90
2022/01/27 12:03:34;;;;;;;;;39.00;32.25;;;;;7.95;62.32;102559.34;5012254;28;45507;-87
2022/01/27 12:06:22;;;;;;;;;50.50;41.25;;;;;7.97;62.31;102528.38;5025064;28;45345;-87
2022/01/27 12:08:48;;;;;;;;;47.50;39.50;;;;;8.08;62.13;102550.31;5029499;28;45683;-87
2022/01/27 12:11:44;;;;;;;;;50.25;40.50;;;;;8.15;62.11;102553.69;5016059;28;45514;-87